Time;durP1;ratioP1;P1;durP2;ratioP2;P2;SDS_P1;SDS_P2;PMS_P1;PMS_P2;Temp;Humidity;BMP_temperature;BMP_pressure;BME280_temperature;BME280_humidity;BME280_pressure;Samples;Min_cycle;Max_cycle;Signal;HPM_P1;HPM_P2
2022/02/23 00:00:41;;;;;;;22.35;3.30;;;6.20;99.90;;;;;;5054229;28;20047;-52
2022/02/23 00:03:07;;;;;;;22.25;3.53;;;6.20;99.90;;;;;;5064040;28;20033;-52
2022/02/23 00:05:32;;;;;;;28.05;3.47;;;6.20;99.90;;;;;;5063825;28;20087;-52
2022/02/23 00:07:58;;;;;;;19.83;3.60;;;6.20;99.90;;;;;;5056520;28;20154;-54
2022/02/23 00:10:24;;;;;;;24.05;3.53;;;6.70;99.90;;;;;;5060174;28;20095;-53
2022/02/23 00:12:49;;;;;;;18.77;4.22;;;6.20;99.90;;;;;;5060730;28;20052;-52
2022/02/23 00:15:15;;;;;;;23.10;3.30;;;6.20;99.90;;;;;;5055625;28;20534;-54
2022/02/23 00:17:41;;;;;;;20.60;3.70;;;6.20;99.90;;;;;;5053782;28;20515;-51
2022/02/23 00:20:08;;;;;;;28.45;3.42;;;6.20;99.90;;;;;;5064620;28;20029;-52
2022/02/23 00:22:34;;;;;;;24.70;4.40;;;6.10;99.90;;;;;;5063910;28;20378;-55
2022/02/23 00:25:01;;;;;;;20.55;3.20;;;6.20;99.90;;;;;;5053967;28;20110;-54
2022/02/23 00:27:26;;;;;;;16.50;4.00;;;6.20;99.90;;;;;;5054470;28;20048;-51
2022/02/23 00:29:53;;;;;;;20.20;4.10;;;6.10;99.90;;;;;;5053884;28;20041;-51
2022/02/23 00:32:19;;;;;;;17.02;3.08;;;6.10;99.90;;;;;;5053497;28;20119;-52
2022/02/23 00:34:45;;;;;;;22.67;3.55;;;6.10;99.90;;;;;;5053618;28;20029;-52
2022/02/23 00:37:11;;;;;;;22.02;3.90;;;6.10;99.90;;;;;;5056830;28;20505;-55
2022/02/23 00:39:36;;;;;;;18.58;3.50;;;6.00;99.90;;;;;;5052342;28;20040;-51
2022/02/23 00:42:02;;;;;;;21.02;3.53;;;6.00;99.90;;;;;;5060583;28;20032;-51
2022/02/23 00:44:28;;;;;;;19.55;3.67;;;6.00;99.90;;;;;;5060156;28;20045;-53
2022/02/23 00:46:54;;;;;;;21.58;4.00;;;5.90;99.90;;;;;;5060797;28;20501;-53
2022/02/23 00:49:20;;;;;;;20.73;4.20;;;5.90;99.90;;;;;;5053325;28;20044;-51
2022/02/23 00:51:46;;;;;;;31.15;3.30;;;6.00;99.90;;;;;;5055620;28;20051;-53
2022/02/23 00:54:11;;;;;;;23.75;3.83;;;5.90;99.90;;;;;;5064324;28;20039;-51
2022/02/23 00:56:37;;;;;;;24.70;3.35;;;5.90;99.90;;;;;;5063482;28;20036;-52
2022/02/23 00:59:02;;;;;;;22.80;4.68;;;5.90;99.90;;;;;;5035357;28;20041;-52
2022/02/23 01:01:28;;;;;;;19.83;3.20;;;5.90;99.90;;;;;;5053484;28;20044;-52
2022/02/23 01:03:54;;;;;;;23.88;3.70;;;5.80;99.90;;;;;;5071417;28;20131;-52
2022/02/23 01:06:20;;;;;;;25.30;3.85;;;5.80;99.90;;;;;;5058764;28;20090;-51
2022/02/23 01:08:45;;;;;;;21.75;3.85;;;5.80;99.90;;;;;;5064330;28;20403;-52
2022/02/23 01:11:11;;;;;;;20.33;3.28;;;5.70;99.90;;;;;;5070442;28;20086;-51
2022/02/23 01:13:36;;;;;;;25.13;3.97;;;5.70;99.90;;;;;;5055914;28;20071;-52
2022/02/23 01:16:02;;;;;;;29.98;5.03;;;5.80;99.90;;;;;;5052850;28;20102;-52
2022/02/23 01:18:28;;;;;;;32.58;4.35;;;5.70;99.90;;;;;;5055526;28;20032;-52
2022/02/23 01:20:53;;;;;;;21.48;3.90;;;5.70;99.90;;;;;;5052586;28;20029;-52
2022/02/23 01:23:19;;;;;;;24.58;4.07;;;5.70;99.90;;;;;;5059819;28;20033;-52
2022/02/23 01:25:45;;;;;;;22.20;3.90;;;5.70;99.90;;;;;;5067294;28;20032;-53
2022/02/23 01:28:12;;;;;;;24.92;4.28;;;5.60;99.90;;;;;;5057875;28;20097;-51
2022/02/23 01:30:38;;;;;;;30.63;4.88;;;5.70;99.90;;;;;;5066411;28;20048;-51
2022/02/23 01:33:04;;;;;;;24.15;4.20;;;5.60;99.90;;;;;;5063496;28;20049;-52
2022/02/23 01:35:30;;;;;;;22.55;4.03;;;5.70;99.90;;;;;;5062519;28;20119;-52
2022/02/23 01:37:56;;;;;;;21.42;4.15;;;5.70;99.90;;;;;;5067298;28;20040;-52
2022/02/23 01:40:23;;;;;;;37.42;5.38;;;5.70;99.90;;;;;;5066615;28;20145;-52
2022/02/23 01:42:50;;;;;;;29.20;4.40;;;5.70;99.90;;;;;;5059378;28;20593;-52
2022/02/23 01:45:15;;;;;;;29.70;4.65;;;5.70;99.90;;;;;;5057393;28;20067;-50
2022/02/23 01:47:41;;;;;;;23.25;3.40;;;5.70;99.90;;;;;;5057957;28;20041;-51
2022/02/23 01:50:08;;;;;;;22.30;4.43;;;5.70;99.90;;;;;;5062488;28;21097;-52
2022/02/23 01:52:35;;;;;;;29.25;4.18;;;5.60;99.90;;;;;;5056395;28;20048;-54
2022/02/23 01:55:00;;;;;;;22.20;4.60;;;5.60;99.90;;;;;;5054305;28;20413;-53
2022/02/23 01:57:26;;;;;;;35.30;4.38;;;5.60;99.90;;;;;;5061068;28;20039;-52
2022/02/23 01:59:52;;;;;;;24.63;4.32;;;5.60;99.90;;;;;;5071990;28;20045;-52
2022/02/23 02:02:17;;;;;;;37.75;5.10;;;5.60;99.90;;;;;;5053986;28;20045;-53
2022/02/23 02:04:43;;;;;;;29.48;4.65;;;5.60;99.90;;;;;;5055503;28;20041;-52
2022/02/23 02:07:10;;;;;;;25.35;4.03;;;5.60;99.90;;;;;;5051944;28;20436;-52
2022/02/23 02:09:35;;;;;;;28.05;4.70;;;5.60;99.90;;;;;;5064553;28;20416;-52
2022/02/23 02:12:01;;;;;;;29.02;4.20;;;5.60;99.90;;;;;;5059698;28;20048;-51
2022/02/23 02:14:26;;;;;;;32.60;5.15;;;5.60;99.90;;;;;;5051791;28;20072;-50
2022/02/23 02:16:52;;;;;;;21.15;4.28;;;5.50;99.90;;;;;;5051210;28;20484;-53
2022/02/23 02:19:18;;;;;;;27.30;3.67;;;5.50;99.90;;;;;;5050165;28;20037;-52
2022/02/23 02:22:01;;;;;;;22.23;3.95;;;5.50;99.90;;;;;;5055468;28;20072;-52
2022/02/23 02:24:37;;;;;;;30.70;4.45;;;5.50;99.90;;;;;;5060951;28;20113;-53
2022/02/23 02:27:06;;;;;;;25.92;4.18;;;5.40;99.90;;;;;;5066615;28;20041;-52
2022/02/23 02:29:33;;;;;;;21.55;4.38;;;5.40;99.90;;;;;;5068220;28;20048;-52
2022/02/23 02:32:00;;;;;;;27.75;4.13;;;5.40;99.90;;;;;;5051492;28;20136;-53
2022/02/23 02:34:26;;;;;;;26.52;4.32;;;5.30;99.90;;;;;;5051480;28;20128;-52
2022/02/23 02:36:51;;;;;;;21.73;4.47;;;5.30;99.90;;;;;;5054607;28;20158;-52
2022/02/23 02:39:19;;;;;;;30.77;4.35;;;5.30;99.90;;;;;;5054233;28;20036;-52
2022/02/23 02:41:45;;;;;;;18.95;3.50;;;5.30;99.90;;;;;;5062801;28;20055;-52
2022/02/23 02:44:11;;;;;;;25.85;5.03;;;5.30;99.90;;;;;;5051508;28;20036;-52
2022/02/23 02:46:37;;;;;;;21.17;3.40;;;5.40;99.90;;;;;;5052758;28;20032;-52
2022/02/23 02:49:03;;;;;;;27.38;4.75;;;5.40;99.90;;;;;;5061168;28;20554;-50
2022/02/23 02:51:28;;;;;;;21.58;3.65;;;5.30;99.90;;;;;;5057790;28;20040;-51
2022/02/23 02:53:54;;;;;;;23.42;4.50;;;5.40;99.90;;;;;;5068272;28;20082;-51
2022/02/23 02:56:20;;;;;;;25.50;4.07;;;5.40;99.90;;;;;;5064423;28;20037;-51
2022/02/23 02:58:52;;;;;;;25.60;4.15;;;5.30;99.90;;;;;;5059661;28;20412;-51
2022/02/23 03:01:27;;;;;;;26.02;3.95;;;5.30;99.90;;;;;;5066631;28;20037;-51
2022/02/23 03:03:53;;;;;;;22.55;3.33;;;5.30;99.90;;;;;;5051354;28;20033;-52
2022/02/23 03:06:19;;;;;;;28.95;3.78;;;5.20;99.90;;;;;;5050641;28;20045;-52
2022/02/23 03:08:47;;;;;;;13.35;3.08;;;5.20;99.90;;;;;;5053553;28;20067;-51
2022/02/23 03:11:13;;;;;;;28.23;3.97;;;5.20;99.90;;;;;;5052714;28;20553;-53
2022/02/23 03:13:40;;;;;;;23.65;3.92;;;5.10;99.90;;;;;;5060349;28;20579;-53
2022/02/23 03:16:06;;;;;;;21.25;3.40;;;5.10;99.90;;;;;;5060936;28;20115;-52
2022/02/23 03:18:33;;;;;;;26.95;4.25;;;5.10;99.90;;;;;;5064488;28;20129;-52
2022/02/23 03:20:59;;;;;;;21.98;3.70;;;5.00;99.90;;;;;;5061217;28;20493;-53
2022/02/23 03:23:25;;;;;;;22.90;3.65;;;5.00;99.90;;;;;;5049777;28;20083;-51
2022/02/23 03:25:50;;;;;;;24.25;3.50;;;5.00;99.90;;;;;;5050412;28;20511;-52
2022/02/23 03:28:16;;;;;;;22.10;3.55;;;5.00;99.90;;;;;;5050763;28;20029;-52
2022/02/23 03:30:42;;;;;;;32.70;4.15;;;5.00;99.90;;;;;;5062915;28;20036;-53
2022/02/23 03:33:11;;;;;;;25.45;3.72;;;5.00;99.90;;;;;;5067903;28;20082;-51
2022/02/23 03:35:38;;;;;;;23.75;4.50;;;4.90;99.90;;;;;;5050769;28;20490;-50
2022/02/23 03:38:05;;;;;;;25.73;4.07;;;5.00;99.90;;;;;;5052440;28;20047;-51
2022/02/23 03:40:31;;;;;;;26.23;4.40;;;5.00;99.90;;;;;;5068971;28;20110;-51
2022/02/23 03:42:58;;;;;;;21.73;3.55;;;4.90;99.90;;;;;;5053326;28;20045;-51
2022/02/23 03:45:24;;;;;;;23.90;3.72;;;4.90;99.90;;;;;;5050827;28;20037;-51
2022/02/23 03:47:49;;;;;;;22.05;3.60;;;4.90;99.90;;;;;;5050573;28;20041;-52
2022/02/23 03:50:15;;;;;;;25.48;3.70;;;4.90;99.90;;;;;;5050988;28;20489;-53
2022/02/23 03:52:41;;;;;;;26.88;3.75;;;4.90;99.90;;;;;;5050652;28;20041;-51
2022/02/23 03:55:08;;;;;;;26.35;3.70;;;4.90;99.90;;;;;;5054163;28;20398;-53
2022/02/23 03:57:34;;;;;;;24.08;3.40;;;4.90;99.90;;;;;;5065850;28;20029;-51
2022/02/23 04:00:00;;;;;;;22.30;3.75;;;4.90;99.90;;;;;;5056226;28;20124;-53
2022/02/23 04:02:26;;;;;;;22.23;3.72;;;4.90;99.90;;;;;;5066491;28;20048;-53
2022/02/23 04:04:51;;;;;;;26.70;3.83;;;4.90;99.90;;;;;;5041126;28;20037;-52
2022/02/23 04:07:17;;;;;;;22.67;3.80;;;4.90;99.90;;;;;;5054347;28;20037;-55
2022/02/23 04:09:43;;;;;;;27.90;5.25;;;4.90;99.90;;;;;;5055873;28;20485;-53
2022/02/23 04:12:09;;;;;;;18.60;2.95;;;4.90;99.90;;;;;;5072514;28;20040;-54
2022/02/23 04:14:36;;;;;;;26.23;3.90;;;4.90;99.90;;;;;;5072572;28;20033;-52
2022/02/23 04:17:02;;;;;;;27.17;3.97;;;4.90;99.90;;;;;;5060849;28;20033;-52
2022/02/23 04:19:27;;;;;;;21.88;3.63;;;4.90;99.90;;;;;;5052758;28;20485;-53
2022/02/23 04:21:53;;;;;;;22.92;3.55;;;4.90;99.90;;;;;;5054043;28;20039;-51
2022/02/23 04:24:19;;;;;;;22.58;3.22;;;4.90;99.90;;;;;;5057283;28;20072;-53
2022/02/23 04:26:44;;;;;;;16.83;3.00;;;4.90;99.90;;;;;;5065999;28;20041;-53
2022/02/23 04:29:10;;;;;;;23.65;3.70;;;4.90;99.90;;;;;;5053970;28;20040;-52
2022/02/23 04:31:35;;;;;;;24.45;4.43;;;4.90;99.90;;;;;;5054446;28;20212;-49
2022/02/23 04:34:02;;;;;;;21.70;3.42;;;4.90;99.90;;;;;;5073637;28;20032;-51
2022/02/23 04:36:27;;;;;;;21.00;4.05;;;4.90;99.90;;;;;;5056422;28;20033;-52
2022/02/23 04:38:53;;;;;;;21.92;3.72;;;4.80;99.90;;;;;;5057108;28;20591;-52
2022/02/23 04:41:19;;;;;;;26.60;3.63;;;4.80;99.90;;;;;;5054920;28;20119;-52
2022/02/23 04:43:45;;;;;;;21.35;3.70;;;4.80;99.90;;;;;;5053555;28;20409;-51
2022/02/23 04:46:11;;;;;;;23.92;4.30;;;4.80;99.90;;;;;;5053239;28;20040;-55
2022/02/23 04:48:42;;;;;;;17.20;3.50;;;4.80;99.90;;;;;;5052438;28;20300;-53
2022/02/23 04:51:07;;;;;;;23.00;3.28;;;4.70;99.90;;;;;;5053023;28;20045;-53
2022/02/23 04:53:33;;;;;;;29.35;3.60;;;4.60;99.90;;;;;;5052945;28;20082;-52
2022/02/23 04:55:59;;;;;;;31.20;5.38;;;4.60;99.90;;;;;;5053022;28;20029;-53
2022/02/23 04:58:25;;;;;;;24.50;4.10;;;4.60;99.90;;;;;;5053808;28;20037;-54
2022/02/23 05:00:51;;;;;;;19.98;3.65;;;4.60;99.90;;;;;;5053270;28;20029;-55
2022/02/23 05:03:17;;;;;;;21.42;3.55;;;4.60;99.90;;;;;;5053094;28;20111;-55
2022/02/23 05:05:45;;;;;;;22.83;4.32;;;4.60;99.90;;;;;;5052933;28;20068;-54
2022/02/23 05:08:12;;;;;;;25.02;3.72;;;4.50;99.90;;;;;;5057526;28;20481;-55
2022/02/23 05:10:38;;;;;;;31.08;3.65;;;4.50;99.90;;;;;;5059284;28;20037;-55
2022/02/23 05:13:03;;;;;;;23.48;3.97;;;4.50;99.90;;;;;;5052853;28;20090;-52
2022/02/23 05:15:29;;;;;;;21.70;3.30;;;4.50;99.90;;;;;;5057017;28;20123;-54
2022/02/23 05:17:54;;;;;;;23.58;3.83;;;4.50;99.90;;;;;;5062807;28;20059;-55
2022/02/23 05:20:20;;;;;;;23.60;3.78;;;4.60;99.90;;;;;;5052614;28;20040;-52
2022/02/23 05:22:48;;;;;;;23.95;3.55;;;4.60;99.90;;;;;;5066311;28;20033;-53
2022/02/23 05:25:14;;;;;;;20.00;3.35;;;4.50;99.90;;;;;;5069096;28;20120;-52
2022/02/23 05:27:40;;;;;;;28.52;4.32;;;4.50;99.90;;;;;;5025735;28;20095;-55
2022/02/23 05:30:07;;;;;;;24.77;3.75;;;4.50;99.90;;;;;;5052515;28;20741;-53
2022/02/23 05:32:32;;;;;;;18.40;3.45;;;4.50;99.90;;;;;;5034737;28;20049;-55
2022/02/23 05:34:58;;;;;;;22.33;3.65;;;4.50;99.90;;;;;;5052259;28;20390;-51
2022/02/23 05:37:24;;;;;;;16.35;3.00;;;4.40;99.90;;;;;;5056431;28;20039;-54
2022/02/23 05:39:49;;;;;;;24.60;3.85;;;4.40;99.90;;;;;;5056171;28;20052;-51
2022/02/23 05:42:15;;;;;;;25.23;3.63;;;4.40;99.90;;;;;;5052078;28;20091;-53
2022/02/23 05:44:41;;;;;;;25.67;4.28;;;4.40;99.90;;;;;;5052666;28;20037;-52
2022/02/23 05:47:06;;;;;;;21.67;3.80;;;4.40;99.90;;;;;;5057379;28;20079;-55
2022/02/23 05:49:32;;;;;;;19.52;3.88;;;4.40;99.90;;;;;;5062628;28;20115;-55
2022/02/23 05:51:58;;;;;;;26.25;3.50;;;4.30;99.90;;;;;;5058807;28;20045;-51
2022/02/23 05:54:23;;;;;;;27.08;4.35;;;4.30;99.90;;;;;;5066283;28;20043;-54
2022/02/23 05:56:49;;;;;;;22.30;3.42;;;4.30;99.90;;;;;;5063695;28;20032;-52
2022/02/23 05:59:15;;;;;;;20.88;4.07;;;4.30;99.90;;;;;;5061511;28;20119;-55
2022/02/23 06:01:40;;;;;;;28.58;3.85;;;4.30;99.90;;;;;;5050174;28;20413;-51
2022/02/23 06:04:06;;;;;;;17.23;3.53;;;4.20;99.90;;;;;;5062334;28;20049;-53
2022/02/23 06:06:31;;;;;;;18.77;3.58;;;4.20;99.90;;;;;;5061175;28;20041;-55
2022/02/23 06:08:57;;;;;;;23.33;3.90;;;4.20;99.90;;;;;;5051741;28;20047;-53
2022/02/23 06:11:24;;;;;;;19.42;3.28;;;4.20;99.90;;;;;;5059174;28;20263;-54
2022/02/23 06:13:53;;;;;;;22.95;3.90;;;4.20;99.90;;;;;;5056405;28;20092;-54
2022/02/23 06:16:23;;;;;;;21.00;3.78;;;4.10;99.90;;;;;;5055030;28;20032;-52
2022/02/23 06:18:49;;;;;;;19.65;3.53;;;4.10;99.90;;;;;;5053376;28;20044;-55
2022/02/23 06:21:15;;;;;;;19.88;3.72;;;4.20;99.90;;;;;;5054331;28;20045;-52
2022/02/23 06:23:40;;;;;;;29.52;4.15;;;4.10;99.90;;;;;;5058370;28;20036;-53
2022/02/23 06:26:06;;;;;;;20.95;3.38;;;4.10;99.90;;;;;;5054349;28;20076;-52
2022/02/23 06:28:33;;;;;;;24.70;4.28;;;4.00;99.90;;;;;;5057945;28;20113;-51
2022/02/23 06:30:59;;;;;;;23.48;3.58;;;4.00;99.90;;;;;;5051587;28;20567;-53
2022/02/23 06:33:25;;;;;;;22.33;3.97;;;4.00;99.90;;;;;;5061163;28;20043;-52
2022/02/23 06:35:52;;;;;;;23.55;4.03;;;4.00;99.90;;;;;;5060481;28;20412;-52
2022/02/23 06:38:19;;;;;;;20.80;3.45;;;4.00;99.90;;;;;;5051260;28;20402;-53
2022/02/23 06:40:45;;;;;;;21.17;3.22;;;4.00;99.90;;;;;;5048711;28;20087;-51
2022/02/23 06:43:15;;;;;;;22.33;4.20;;;4.00;99.90;;;;;;5052567;28;20041;-51
2022/02/23 06:45:44;;;;;;;23.75;4.07;;;4.00;99.90;;;;;;5050913;28;20045;-51
2022/02/23 06:48:10;;;;;;;21.88;4.22;;;4.00;99.90;;;;;;5050003;28;20156;-54
2022/02/23 06:50:35;;;;;;;24.95;3.83;;;4.00;99.90;;;;;;5067920;28;20119;-50
2022/02/23 06:53:01;;;;;;;17.38;3.28;;;4.10;99.90;;;;;;5070101;28;20044;-51
2022/02/23 06:55:27;;;;;;;30.13;4.30;;;4.10;99.90;;;;;;5065669;28;20044;-51
2022/02/23 06:57:52;;;;;;;22.73;4.03;;;4.10;99.90;;;;;;5052065;28;20405;-51
2022/02/23 07:00:18;;;;;;;18.20;3.80;;;4.10;99.90;;;;;;5061974;28;20060;-51
2022/02/23 07:02:44;;;;;;;20.10;3.72;;;4.10;99.90;;;;;;5058041;28;20048;-55
2022/02/23 07:05:10;;;;;;;23.73;3.72;;;4.10;99.90;;;;;;5053100;28;20037;-53
2022/02/23 07:07:36;;;;;;;22.75;3.70;;;4.20;99.90;;;;;;5051733;28;20405;-51
2022/02/23 07:10:07;;;;;;;19.58;3.88;;;4.20;99.90;;;;;;5053487;28;20040;-55
2022/02/23 07:12:35;;;;;;;25.00;4.47;;;4.20;99.90;;;;;;5051652;28;20552;-54
2022/02/23 07:15:01;;;;;;;17.33;4.00;;;4.20;99.90;;;;;;5053338;28;20476;-54
2022/02/23 07:17:26;;;;;;;27.75;5.78;;;4.20;99.90;;;;;;5050804;28;20045;-54
2022/02/23 07:19:52;;;;;;;31.77;7.35;;;4.20;99.90;;;;;;5057626;28;20090;-54
2022/02/23 07:22:17;;;;;;;39.05;7.82;;;4.30;99.90;;;;;;5051815;28;20041;-55
2022/02/23 07:24:43;;;;;;;38.25;9.00;;;4.30;99.90;;;;;;5049779;28;20041;-55
2022/02/23 07:27:12;;;;;;;37.00;10.13;;;4.30;99.90;;;;;;5053180;28;20052;-54
2022/02/23 07:29:38;;;;;;;43.90;11.63;;;4.30;99.90;;;;;;5053288;28;20098;-55
2022/02/23 07:32:04;;;;;;;38.28;11.30;;;4.40;99.90;;;;;;5052526;28;20548;-55
2022/02/23 07:34:30;;;;;;;50.40;11.70;;;4.50;99.90;;;;;;5055786;28;20052;-55
2022/02/23 07:36:55;;;;;;;45.17;12.25;;;4.60;99.90;;;;;;5058447;28;20036;-52
2022/02/23 07:39:21;;;;;;;42.50;11.25;;;4.60;99.90;;;;;;5056205;28;20102;-51
2022/02/23 07:41:46;;;;;;;40.38;10.63;;;4.70;99.90;;;;;;5062324;28;20117;-51
2022/02/23 07:44:12;;;;;;;38.35;10.35;;;4.80;99.90;;;;;;5059090;28;20615;-54
2022/02/23 07:46:37;;;;;;;35.28;9.73;;;4.90;99.90;;;;;;5060602;28;20040;-54
2022/02/23 07:49:03;;;;;;;32.47;8.95;;;4.90;99.90;;;;;;5055283;28;20040;-51
2022/02/23 07:51:29;;;;;;;25.30;8.32;;;5.00;99.90;;;;;;5059972;28;20178;-51
2022/02/23 07:53:55;;;;;;;34.45;8.63;;;5.10;99.90;;;;;;5064197;28;20510;-51
2022/02/23 07:56:22;;;;;;;35.17;8.18;;;5.20;99.90;;;;;;5046040;28;20044;-53
2022/02/23 07:58:48;;;;;;;28.92;7.15;;;5.20;99.90;;;;;;5050617;28;20156;-52
2022/02/23 08:01:34;;;;;;;27.63;6.85;;;5.30;99.90;;;;;;5055567;28;20033;-54
2022/02/23 08:04:01;;;;;;;28.48;6.60;;;5.30;99.90;;;;;;5052225;28;20299;-54
2022/02/23 08:06:27;;;;;;;27.85;6.18;;;5.40;99.90;;;;;;5049793;28;20512;-53
2022/02/23 08:08:54;;;;;;;24.42;5.55;;;5.50;99.90;;;;;;5044920;28;20457;-54
2022/02/23 08:11:19;;;;;;;28.55;5.72;;;5.50;99.90;;;;;;5060064;28;20040;-51
2022/02/23 08:13:45;;;;;;;24.75;6.35;;;5.60;99.90;;;;;;5057461;28;20519;-53
2022/02/23 08:21:40;;;;;;;22.52;4.93;;;5.80;99.90;;;;;;5060759;28;20055;-49
2022/02/23 08:24:06;;;;;;;25.33;5.03;;;5.90;99.90;;;;;;5057028;28;20041;-50
2022/02/23 08:26:32;;;;;;;26.80;4.90;;;6.00;99.90;;;;;;5060439;28;20081;-50
2022/02/23 08:28:57;;;;;;;24.27;4.63;;;6.00;99.90;;;;;;5052659;28;20033;-49
2022/02/23 08:31:23;;;;;;;27.73;4.30;;;6.10;99.90;;;;;;5053465;28;20527;-53
2022/02/23 08:33:48;;;;;;;21.83;3.80;;;6.20;99.90;;;;;;5055274;28;20040;-50
2022/02/23 08:36:14;;;;;;;21.48;4.63;;;6.30;99.90;;;;;;5052903;28;20080;-51
2022/02/23 08:38:41;;;;;;;21.52;4.10;;;6.30;99.90;;;;;;5053051;28;20473;-50
2022/02/23 08:41:07;;;;;;;24.20;4.68;;;6.30;99.90;;;;;;5057382;28;20119;-53
2022/02/23 08:43:32;;;;;;;22.92;4.50;;;6.40;99.90;;;;;;5056854;28;20115;-51
2022/02/23 08:45:58;;;;;;;23.05;3.90;;;6.50;99.90;;;;;;5054191;28;20168;-53
2022/02/23 08:48:26;;;;;;;21.40;3.88;;;6.50;99.90;;;;;;5065272;28;20040;-50
2022/02/23 08:50:52;;;;;;;26.50;4.28;;;6.60;99.90;;;;;;5054941;28;20115;-50
2022/02/23 08:53:17;;;;;;;20.63;4.57;;;6.70;99.90;;;;;;5059994;28;20175;-49
2022/02/23 08:55:43;;;;;;;20.40;4.00;;;6.70;99.90;;;;;;5053353;28;20182;-50
2022/02/23 08:58:13;;;;;;;20.52;3.88;;;6.80;99.90;;;;;;5068098;28;20473;-50
2022/02/23 09:00:40;;;;;;;24.25;4.32;;;6.90;99.90;;;;;;5063703;28;20044;-50
2022/02/23 09:03:05;;;;;;;23.38;3.78;;;7.00;99.90;;;;;;5053235;28;20040;-54
2022/02/23 09:05:31;;;;;;;23.60;3.47;;;7.00;99.90;;;;;;5047744;28;20048;-54
2022/02/23 09:07:56;;;;;;;20.02;4.20;;;7.10;99.90;;;;;;5050842;28;20055;-50
2022/02/23 09:10:22;;;;;;;17.70;3.28;;;7.20;99.90;;;;;;5061063;28;20044;-50
2022/02/23 09:12:48;;;;;;;23.02;3.70;;;7.30;99.90;;;;;;5051878;28;20135;-50
2022/02/23 09:15:14;;;;;;;13.65;3.03;;;7.30;99.90;;;;;;5059799;28;20029;-50
2022/02/23 09:17:41;;;;;;;19.98;3.63;;;7.40;99.90;;;;;;5055621;28;20029;-50
2022/02/23 09:20:07;;;;;;;18.25;3.03;;;7.50;99.90;;;;;;5054314;28;20460;-51
2022/02/23 09:22:32;;;;;;;23.48;4.43;;;7.50;99.90;;;;;;5055562;28;20041;-51
2022/02/23 09:24:58;;;;;;;16.70;2.80;;;7.60;99.90;;;;;;5054013;28;20044;-50
2022/02/23 09:27:23;;;;;;;21.65;3.67;;;7.60;99.90;;;;;;5055762;28;20048;-50
2022/02/23 09:29:49;;;;;;;16.80;3.17;;;7.70;99.90;;;;;;5067705;28;20599;-50
2022/02/23 09:32:15;;;;;;;13.88;3.15;;;7.70;99.90;;;;;;5058285;28;20397;-50
2022/02/23 09:34:41;;;;;;;18.30;3.78;;;7.80;99.90;;;;;;5055515;28;20481;-50
2022/02/23 09:37:07;;;;;;;19.02;3.05;;;7.90;99.90;;;;;;5057946;28;20094;-50
2022/02/23 09:39:32;;;;;;;20.38;3.85;;;7.90;99.90;;;;;;5056383;28;20033;-50
2022/02/23 09:41:59;;;;;;;15.95;2.75;;;8.00;99.90;;;;;;5057163;28;20048;-52
2022/02/23 09:44:27;;;;;;;14.23;2.80;;;7.90;99.90;;;;;;5062971;28;20041;-50
2022/02/23 09:46:53;;;;;;;18.40;3.10;;;8.00;99.90;;;;;;5054301;28;20049;-51
2022/02/23 09:49:18;;;;;;;13.07;3.22;;;8.00;99.90;;;;;;5060271;28;20122;-54
2022/02/23 09:51:46;;;;;;;12.70;3.00;;;8.10;99.90;;;;;;5056927;28;20481;-53
2022/02/23 09:54:12;;;;;;;19.35;2.92;;;8.10;99.90;;;;;;5058420;28;20044;-50
2022/02/23 09:56:39;;;;;;;17.10;3.47;;;8.20;99.90;;;;;;5045966;28;20387;-50
2022/02/23 09:59:06;;;;;;;13.25;2.53;;;8.20;99.90;;;;;;5035128;28;20033;-50
2022/02/23 10:01:33;;;;;;;16.42;2.80;;;8.20;99.90;;;;;;5051644;28;20551;-53
2022/02/23 10:04:01;;;;;;;17.05;3.25;;;8.30;99.90;;;;;;5034457;28;20413;-50
2022/02/23 10:06:32;;;;;;;10.75;2.80;;;8.30;99.90;;;;;;5050634;28;20071;-52
2022/02/23 10:09:08;;;;;;;14.27;3.40;;;8.40;99.90;;;;;;5060035;28;20040;-50
2022/02/23 10:11:35;;;;;;;15.77;3.28;;;8.50;99.90;;;;;;5067730;28;20044;-50
2022/02/23 10:14:02;;;;;;;13.68;3.17;;;8.50;99.90;;;;;;5056449;28;20044;-50
2022/02/23 10:16:40;;;;;;;18.20;3.55;;;8.50;99.90;;;;;;5053740;28;20037;-50
2022/02/23 10:19:23;;;;;;;19.17;3.75;;;8.60;99.90;;;;;;5056517;28;20033;-53
2022/02/23 10:21:56;;;;;;;14.80;3.38;;;8.60;99.90;;;;;;5055150;28;20409;-50
2022/02/23 10:24:33;;;;;;;14.68;3.20;;;8.70;99.90;;;;;;5057230;28;20079;-50
2022/02/23 10:27:10;;;;;;;16.48;3.08;;;8.70;99.90;;;;;;5059117;28;20036;-51
2022/02/23 10:29:44;;;;;;;16.38;3.35;;;8.80;99.90;;;;;;5061257;28;20111;-51
2022/02/23 10:32:11;;;;;;;15.98;3.63;;;8.80;99.90;;;;;;5050453;28;20489;-51
2022/02/23 10:34:43;;;;;;;12.93;3.17;;;8.90;99.90;;;;;;5053696;28;20106;-55
2022/02/23 10:37:10;;;;;;;16.50;2.95;;;8.90;99.90;;;;;;5058035;28;20064;-50
2022/02/23 10:39:37;;;;;;;19.00;3.17;;;8.90;99.90;;;;;;5051609;28;20159;-53
2022/02/23 10:42:08;;;;;;;13.57;2.72;;;8.90;99.90;;;;;;5054915;28;20322;-52
2022/02/23 10:44:38;;;;;;;21.45;2.78;;;9.00;99.90;;;;;;5053378;28;20036;-52
2022/02/23 10:47:06;;;;;;;14.45;3.30;;;9.10;99.90;;;;;;5057066;28;20044;-53
2022/02/23 10:49:31;;;;;;;21.25;3.17;;;9.10;99.90;;;;;;5060962;28;20119;-53
2022/02/23 10:52:06;;;;;;;15.15;4.18;;;9.00;99.90;;;;;;5062167;28;20131;-50
2022/02/23 10:54:33;;;;;;;15.57;3.15;;;9.20;99.90;;;;;;5044899;28;20500;-51
2022/02/23 10:56:58;;;;;;;11.65;2.67;;;9.30;99.90;;;;;;5067418;28;20029;-50
2022/02/23 10:59:24;;;;;;;13.57;3.08;;;9.40;99.90;;;;;;5060167;28;20033;-51
2022/02/23 11:01:51;;;;;;;11.70;2.42;;;9.50;99.90;;;;;;5050517;28;20464;-50
2022/02/23 11:04:18;;;;;;;12.13;2.47;;;9.50;99.90;;;;;;5053941;28;20416;-54
2022/02/23 11:06:44;;;;;;;12.93;2.92;;;9.50;99.90;;;;;;5054558;28;20072;-52
2022/02/23 11:09:11;;;;;;;9.43;2.30;;;9.50;99.90;;;;;;5069547;28;20079;-50
2022/02/23 11:11:37;;;;;;;13.50;2.47;;;9.50;99.90;;;;;;5061450;28;20041;-54
2022/02/23 11:14:07;;;;;;;12.30;2.00;;;9.60;99.90;;;;;;5060666;28;20589;-50
2022/02/23 11:16:33;;;;;;;11.50;3.45;;;9.60;99.90;;;;;;5057424;28;20048;-53
2022/02/23 11:19:03;;;;;;;11.98;2.42;;;9.60;99.90;;;;;;5069819;28;20460;-51
2022/02/23 11:21:33;;;;;;;7.85;1.92;;;9.70;99.90;;;;;;5064292;28;20040;-54
2022/02/23 11:24:01;;;;;;;13.88;2.47;;;9.80;99.90;;;;;;5058959;28;20041;-53
2022/02/23 11:26:32;;;;;;;11.27;2.60;;;9.80;99.90;;;;;;5058701;28;20087;-50
2022/02/23 11:29:13;;;;;;;10.55;2.55;;;9.80;99.90;;;;;;5054461;28;20033;-50
2022/02/23 11:31:39;;;;;;;8.77;2.75;;;9.80;99.90;;;;;;5053496;28;20107;-50
2022/02/23 11:34:06;;;;;;;13.32;2.75;;;10.20;99.90;;;;;;5052102;28;20050;-50
2022/02/23 11:36:34;;;;;;;7.40;1.90;;;9.90;99.90;;;;;;5053439;28;20071;-50
2022/02/23 11:39:03;;;;;;;12.35;2.78;;;10.00;99.90;;;;;;5058456;28;20041;-53
2022/02/23 11:41:31;;;;;;;10.30;2.45;;;10.00;99.90;;;;;;5051591;28;20413;-51
2022/02/23 11:44:20;;;;;;;11.90;2.35;;;10.00;99.90;;;;;;5050696;28;20045;-50
2022/02/23 11:47:09;;;;;;;9.98;2.60;;;10.10;99.90;;;;;;5053764;28;20126;-50
2022/02/23 11:49:36;;;;;;;12.68;2.28;;;10.10;99.90;;;;;;5052981;28;20123;-50
2022/02/23 11:52:06;;;;;;;9.90;2.28;;;10.10;99.90;;;;;;5055829;28;20033;-50
2022/02/23 11:55:03;;;;;;;10.57;2.50;;;10.10;99.90;;;;;;5058215;28;20061;-53
2022/02/23 11:57:50;;;;;;;8.98;2.05;;;10.20;99.90;;;;;;5036026;28;20041;-54
2022/02/23 12:00:23;;;;;;;8.20;2.33;;;10.20;99.90;;;;;;5057528;28;20036;-51
2022/02/23 12:03:09;;;;;;;7.22;1.90;;;10.30;99.90;;;;;;5056265;28;20087;-53
2022/02/23 12:05:43;;;;;;;8.40;1.92;;;10.30;99.90;;;;;;5060389;28;20045;-52
2022/02/23 12:08:33;;;;;;;8.80;1.85;;;10.30;99.70;;;;;;5036004;28;20044;-53
2022/02/23 12:11:05;;;;;;;8.07;2.10;;;10.30;98.50;;;;;;5062480;28;20495;-54
2022/02/23 12:13:39;;;;;;;9.60;2.22;;;10.30;97.80;;;;;;5054277;28;20060;-54
2022/02/23 12:16:22;;;;;;;4.70;1.45;;;10.40;98.40;;;;;;5063708;28;20573;-54
2022/02/23 12:18:50;;;;;;;9.20;1.58;;;10.40;96.80;;;;;;5056090;28;20037;-52
2022/02/23 12:21:16;;;;;;;7.50;1.90;;;10.40;97.10;;;;;;5060391;28;20040;-54
2022/02/23 12:23:46;;;;;;;7.50;1.90;;;10.40;95.90;;;;;;5061088;28;20037;-54
2022/02/23 12:26:20;;;;;;;9.32;1.92;;;10.50;95.20;;;;;;5056785;28;20052;-54
2022/02/23 12:28:48;;;;;;;8.88;1.55;;;10.40;97.30;;;;;;5064476;28;20402;-54
2022/02/23 12:31:27;;;;;;;9.55;1.70;;;10.50;96.50;;;;;;5058657;28;20543;-52
2022/02/23 12:33:56;;;;;;;9.25;1.98;;;10.50;94.60;;;;;;5064168;28;20040;-54
2022/02/23 12:36:48;;;;;;;5.60;1.52;;;10.60;95.80;;;;;;5061617;28;20047;-54
2022/02/23 12:39:17;;;;;;;8.35;1.95;;;10.60;95.20;;;;;;5053889;28;20041;-54
2022/02/23 12:41:47;;;;;;;10.40;2.05;;;10.60;95.30;;;;;;5056486;28;20045;-52
2022/02/23 12:44:21;;;;;;;8.90;2.00;;;10.60;96.70;;;;;;5060694;28;20045;-54
2022/02/23 12:46:54;;;;;;;9.57;2.17;;;10.70;97.10;;;;;;5053310;28;20116;-53
2022/02/23 12:49:21;;;;;;;6.75;1.75;;;10.70;94.40;;;;;;5073573;28;20040;-52
2022/02/23 12:51:48;;;;;;;8.63;2.22;;;10.70;93.60;;;;;;5062304;28;20127;-54